Terminal Aerodrome Forecast
Issued by NWS Spokane, WA

Current Version | Previous Version | Text Only | Print | Product List | Glossary On
Versions: 1 2 3 4 5 6 7 8 9 10 11 12 13 14 15 16 17 18 19 20 21 22 23 24
320
FTUS46 KOTX 271726
TAFLWS
TAF
KLWS 271726Z 2718/2818 VRB05KT P6SM VCSH FEW060 BKN130 BKN200
     FM272100 32009G15KT P6SM SCT060 SCT120
     FM280300 24007KT P6SM SCT080 SCT200
     FM280800 VRB03KT P6SM SCT150
     FM281200 09004KT P6SM BKN250=

USA.gov is the U.S. government's official web portal to all federal, state and local government web resources and services.